createdAt,value
2022-09-17T00:01:31.473Z,92.77
2022-09-17T00:04:04.481Z,92.85
2022-09-17T00:06:36.071Z,92.77
2022-09-17T00:09:07.860Z,92.70
2022-09-17T00:11:38.938Z,92.85
2022-09-17T00:14:10.224Z,93.00
2022-09-17T00:16:41.712Z,93.01
2022-09-17T00:19:21.457Z,93.32
2022-09-17T00:21:51.565Z,93.59
2022-09-17T00:24:20.780Z,93.71
2022-09-17T00:26:49.652Z,93.48
2022-09-17T00:29:17.312Z,93.28
2022-09-17T00:31:46.831Z,93.27
2022-09-17T00:34:14.176Z,93.24
2022-09-17T00:36:41.730Z,93.26
2022-09-17T00:39:12.047Z,93.02
2022-09-17T00:41:40.262Z,92.83
2022-09-17T00:44:39.495Z,92.72
2022-09-17T00:47:35.352Z,92.67
2022-09-17T00:50:17.634Z,93.01
2022-09-17T00:52:51.691Z,92.87
2022-09-17T00:55:24.616Z,92.73
2022-09-17T00:57:56.509Z,92.70
2022-09-17T01:00:24.036Z,92.47
2022-09-17T01:02:54.357Z,92.58
2022-09-17T01:06:05.895Z,92.60
2022-09-17T01:08:50.277Z,92.87
2022-09-17T01:11:48.217Z,93.55
2022-09-17T01:14:52.352Z,94.08
2022-09-17T01:18:09.434Z,94.16
2022-09-17T01:21:21.792Z,94.59
2022-09-17T01:24:22.658Z,94.71
2022-09-17T01:27:27.521Z,94.55
2022-09-17T01:30:22.740Z,94.79
2022-09-17T01:33:21.522Z,94.76
2022-09-17T01:35:55.641Z,95.24
2022-09-17T01:38:39.488Z,94.72
2022-09-17T01:42:02.282Z,95.07
2022-09-17T01:44:40.722Z,95.22
2022-09-17T01:47:23.129Z,95.16
2022-09-17T01:50:03.149Z,95.17
2022-09-17T01:52:35.997Z,94.98
2022-09-17T01:55:11.485Z,95.07
2022-09-17T01:57:54.167Z,95.19
2022-09-17T02:00:22.554Z,95.42
2022-09-17T02:03:15.025Z,95.62
2022-09-17T02:05:54.370Z,95.57
2022-09-17T02:08:27.069Z,95.69
2022-09-17T02:11:11.162Z,95.92
2022-09-17T02:13:56.243Z,96.62
2022-09-17T02:16:34.122Z,97.27
2022-09-17T02:19:23.509Z,96.83
2022-09-17T02:22:23.869Z,97.12
2022-09-17T02:25:01.031Z,97.76
2022-09-17T02:28:03.700Z,97.57
2022-09-17T02:30:32.315Z,97.56
2022-09-17T02:33:04.968Z,97.97
2022-09-17T02:35:33.406Z,98.58
2022-09-17T02:38:01.327Z,98.51
2022-09-17T02:40:41.509Z,98.22
2022-09-17T02:43:23.985Z,98.90
2022-09-17T02:46:35.903Z,98.82
2022-09-17T02:49:50.196Z,98.72
2022-09-17T02:52:41.918Z,98.58
2022-09-17T02:55:26.921Z,98.98
2022-09-17T02:58:05.763Z,99.84
2022-09-17T03:00:34.150Z,99.97
2022-09-17T03:03:40.835Z,100.00
2022-09-17T03:06:08.499Z,100.00
2022-09-17T03:08:40.519Z,100.00
2022-09-17T03:11:10.383Z,100.00
2022-09-17T03:13:37.871Z,100.00
2022-09-17T03:16:07.237Z,100.00
2022-09-17T03:18:34.624Z,100.00
2022-09-17T03:21:02.227Z,100.00
2022-09-17T03:23:29.538Z,100.00
2022-09-17T03:25:56.813Z,100.00
2022-09-17T03:28:26.603Z,100.00
2022-09-17T03:30:54.408Z,100.00
2022-09-17T03:33:22.091Z,100.00
2022-09-17T03:35:49.553Z,100.00
2022-09-17T03:38:17.250Z,100.00
2022-09-17T03:40:44.478Z,100.00
2022-09-17T03:43:11.911Z,100.00
2022-09-17T03:45:39.098Z,100.00
2022-09-17T03:48:06.295Z,100.00
2022-09-17T03:50:33.839Z,100.00
2022-09-17T03:53:01.001Z,100.00
2022-09-17T03:55:28.230Z,100.00
2022-09-17T03:57:56.415Z,100.00
2022-09-17T04:00:25.464Z,100.00
2022-09-17T04:02:52.784Z,100.00
2022-09-17T04:05:20.314Z,100.00
2022-09-17T04:07:47.536Z,100.00
2022-09-17T04:10:14.848Z,100.00
2022-09-17T04:12:42.201Z,100.00
2022-09-17T04:15:10.007Z,100.00
2022-09-17T04:17:37.256Z,100.00
2022-09-17T04:20:06.540Z,100.00
2022-09-17T04:22:34.030Z,100.00
2022-09-17T04:25:01.359Z,100.00
2022-09-17T04:27:28.728Z,100.00
2022-09-17T04:29:55.881Z,100.00
2022-09-17T04:32:23.042Z,100.00
2022-09-17T04:34:50.466Z,100.00
2022-09-17T04:37:17.596Z,100.00
2022-09-17T04:39:44.750Z,100.00
2022-09-17T04:42:12.101Z,100.00
2022-09-17T04:44:39.256Z,100.00
2022-09-17T04:47:06.832Z,100.00
2022-09-17T04:49:34.265Z,100.00
2022-09-17T04:52:01.671Z,100.00
2022-09-17T04:54:28.871Z,100.00
2022-09-17T04:56:56.286Z,100.00
2022-09-17T04:59:23.840Z,100.00
2022-09-17T05:01:51.183Z,100.00
2022-09-17T05:04:18.855Z,100.00
2022-09-17T05:06:45.984Z,100.00
2022-09-17T05:09:14.127Z,100.00
2022-09-17T05:11:42.016Z,100.00
2022-09-17T05:14:09.466Z,100.00
2022-09-17T05:16:36.654Z,100.00
2022-09-17T05:19:04.291Z,100.00
2022-09-17T05:21:31.796Z,100.00
2022-09-17T05:23:59.067Z,100.00
2022-09-17T05:26:26.452Z,100.00
2022-09-17T05:28:53.791Z,99.39
2022-09-17T05:31:21.222Z,98.73
2022-09-17T05:33:48.577Z,98.58
2022-09-17T05:36:15.759Z,98.10
2022-09-17T05:38:43.193Z,97.98
2022-09-17T05:41:10.659Z,97.43
2022-09-17T05:43:37.801Z,96.91
2022-09-17T05:46:07.179Z,96.44
2022-09-17T05:48:34.649Z,95.97
2022-09-17T05:51:02.156Z,95.81
2022-09-17T05:53:29.313Z,95.05
2022-09-17T05:55:58.766Z,93.90
2022-09-17T05:58:27.178Z,92.78
2022-09-17T06:00:54.334Z,92.31
2022-09-17T06:03:24.832Z,91.89
2022-09-17T06:05:58.727Z,91.10
2022-09-17T06:08:29.000Z,90.09
2022-09-17T06:11:01.602Z,89.34
2022-09-17T06:13:29.886Z,88.21
2022-09-17T06:15:57.198Z,87.59
2022-09-17T06:18:24.463Z,86.93
2022-09-17T06:21:05.646Z,86.08
2022-09-17T06:23:35.405Z,86.20
2022-09-17T06:26:05.829Z,85.75
2022-09-17T06:28:35.765Z,85.56
2022-09-17T06:31:08.373Z,85.70
2022-09-17T06:33:36.555Z,85.77
2022-09-17T06:36:14.154Z,85.21
2022-09-17T06:38:42.778Z,85.10
2022-09-17T06:41:10.098Z,84.66
2022-09-17T06:43:37.362Z,83.74
2022-09-17T06:46:06.676Z,83.49
2022-09-17T06:48:35.933Z,82.11
2022-09-17T06:51:07.668Z,81.71
2022-09-17T06:53:38.205Z,80.32
2022-09-17T06:56:08.503Z,79.71
2022-09-17T06:58:37.648Z,79.17
2022-09-17T07:01:06.263Z,79.34
2022-09-17T07:03:34.800Z,78.68
2022-09-17T07:06:12.818Z,78.21
2022-09-17T07:08:40.097Z,77.28
2022-09-17T07:11:08.433Z,73.82
2022-09-17T07:13:36.219Z,70.23
2022-09-17T07:16:06.029Z,65.73
2022-09-17T07:18:34.004Z,59.23
2022-09-17T07:21:05.237Z,54.94
2022-09-17T07:23:35.751Z,48.40
2022-09-17T07:26:15.848Z,45.38
2022-09-17T07:28:44.154Z,46.32
2022-09-17T07:31:16.407Z,48.65
2022-09-17T07:33:45.008Z,52.72
2022-09-17T07:36:18.043Z,54.71
2022-09-17T07:38:45.798Z,55.28
2022-09-17T07:41:17.132Z,55.41
2022-09-17T07:43:45.317Z,55.64
2022-09-17T07:46:19.528Z,55.43
2022-09-17T07:48:48.716Z,54.51
2022-09-17T07:51:22.975Z,51.71
2022-09-17T07:53:56.247Z,50.90
2022-09-17T07:56:25.345Z,49.89
2022-09-17T07:58:53.112Z,49.20
2022-09-17T08:01:23.741Z,50.16
2022-09-17T08:03:54.072Z,49.73
2022-09-17T08:06:28.381Z,49.81
2022-09-17T08:08:57.606Z,49.46
2022-09-17T08:11:51.665Z,45.48
2022-09-17T08:14:16.619Z,43.37
2022-09-17T08:16:46.465Z,43.36
2022-09-17T08:19:13.813Z,45.25
2022-09-17T08:21:47.032Z,45.10
2022-09-17T08:24:14.397Z,45.34
2022-09-17T08:26:41.860Z,44.80
2022-09-17T08:29:10.571Z,43.81
2022-09-17T08:31:38.016Z,42.11
2022-09-17T08:34:09.954Z,42.33
2022-09-17T08:36:37.817Z,37.87
2022-09-17T08:39:05.278Z,37.34
2022-09-17T08:41:49.849Z,34.70
2022-09-17T08:44:25.647Z,32.04
2022-09-17T08:47:06.121Z,27.87
2022-09-17T08:49:44.035Z,26.27
2022-09-17T08:52:54.862Z,21.80
2022-09-17T08:55:40.380Z,22.30
2022-09-17T08:58:57.656Z,26.09
2022-09-17T09:01:39.763Z,29.63
2022-09-17T09:04:33.234Z,33.82
2022-09-17T09:07:20.137Z,38.42
2022-09-17T09:10:04.888Z,40.67
2022-09-17T09:12:37.284Z,43.55
2022-09-17T09:15:33.089Z,46.11
2022-09-17T09:18:18.060Z,48.27
2022-09-17T09:21:09.579Z,50.29
2022-09-17T09:23:56.925Z,51.07
2022-09-17T09:26:57.809Z,52.50
2022-09-17T09:29:50.420Z,53.92
2022-09-17T09:33:00.531Z,54.72
2022-09-17T09:35:32.728Z,54.73
2022-09-17T09:38:24.985Z,55.78
2022-09-17T09:41:03.983Z,55.27
2022-09-17T09:44:03.088Z,55.17
2022-09-17T09:46:49.095Z,55.07
2022-09-17T09:49:31.251Z,55.32
2022-09-17T09:52:48.948Z,55.79
2022-09-17T09:55:35.463Z,55.97
2022-09-17T09:58:40.015Z,56.31
2022-09-17T10:01:21.027Z,56.69
2022-09-17T10:03:52.757Z,57.76
2022-09-17T10:06:21.397Z,59.27
2022-09-17T10:08:57.355Z,60.25
2022-09-17T10:11:28.648Z,61.33
2022-09-17T10:14:33.673Z,61.77
2022-09-17T10:17:26.339Z,62.22
2022-09-17T10:20:06.136Z,62.37
2022-09-17T10:22:37.067Z,63.31
2022-09-17T10:25:18.681Z,63.48
2022-09-17T10:27:48.834Z,63.01
2022-09-17T10:30:19.154Z,63.18
2022-09-17T10:33:29.353Z,62.55
2022-09-17T10:36:11.633Z,62.00
2022-09-17T10:38:47.316Z,59.40
2022-09-17T10:41:25.070Z,56.91
2022-09-17T10:43:52.691Z,52.10
2022-09-17T10:46:34.183Z,48.96
2022-09-17T10:49:34.958Z,50.37
2022-09-17T10:52:14.894Z,51.57
2022-09-17T10:55:17.672Z,52.34
2022-09-17T10:58:07.484Z,54.14
2022-09-17T11:01:08.901Z,55.84
2022-09-17T11:04:19.435Z,57.48
2022-09-17T11:07:04.951Z,59.02
2022-09-17T11:10:22.233Z,60.36
2022-09-17T11:12:54.974Z,61.10
2022-09-17T11:15:52.897Z,62.23
2022-09-17T11:18:39.853Z,62.34
2022-09-17T11:21:31.723Z,62.77
2022-09-17T11:24:05.015Z,62.60
2022-09-17T11:27:10.061Z,63.11
2022-09-17T11:30:14.837Z,62.73
2022-09-17T11:33:08.268Z,62.68
2022-09-17T11:35:52.045Z,63.09
2022-09-17T11:38:45.377Z,63.09
2022-09-17T11:41:31.717Z,63.79
2022-09-17T11:44:31.694Z,63.73
2022-09-17T11:47:29.644Z,64.15
2022-09-17T11:50:10.224Z,63.68
2022-09-17T11:52:51.251Z,63.16
2022-09-17T11:55:44.598Z,63.14
2022-09-17T11:58:41.736Z,65.20
2022-09-17T12:01:25.800Z,64.48
2022-09-17T12:04:07.169Z,64.50
2022-09-17T12:07:00.604Z,64.72
2022-09-17T12:09:36.781Z,64.63
2022-09-17T12:12:44.942Z,65.50
2022-09-17T12:15:22.270Z,67.19
2022-09-17T12:18:32.317Z,67.61
2022-09-17T12:21:05.268Z,67.45
2022-09-17T12:23:43.211Z,67.38
2022-09-17T12:26:25.733Z,67.54
2022-09-17T12:29:43.303Z,67.57
2022-09-17T12:32:31.816Z,67.88
2022-09-17T12:36:03.136Z,67.80
2022-09-17T12:39:02.211Z,67.73
2022-09-17T12:42:18.044Z,66.50
2022-09-17T12:45:16.450Z,64.49
2022-09-17T12:48:25.672Z,63.61
2022-09-17T12:51:27.369Z,63.47
2022-09-17T12:54:26.401Z,63.23
2022-09-17T12:57:14.004Z,62.92
2022-09-17T13:00:06.864Z,62.40
2022-09-17T13:03:02.614Z,62.54
2022-09-17T13:05:55.103Z,62.95
2022-09-17T13:09:00.442Z,62.84
2022-09-17T13:11:57.944Z,62.88
2022-09-17T13:14:49.926Z,63.02
2022-09-17T13:18:12.781Z,63.79
2022-09-17T13:21:02.001Z,64.32
2022-09-17T13:23:52.321Z,63.67
2022-09-17T13:26:32.861Z,62.55
2022-09-17T13:29:00.422Z,61.21
2022-09-17T13:31:40.104Z,60.38
2022-09-17T13:34:19.230Z,58.21
2022-09-17T13:36:53.914Z,57.76
2022-09-17T13:39:40.264Z,56.85
2022-09-17T13:42:22.500Z,57.04
2022-09-17T13:45:06.114Z,56.55
2022-09-17T13:47:48.927Z,56.26
2022-09-17T13:50:38.491Z,55.93
2022-09-17T13:53:25.253Z,54.42
2022-09-17T13:55:54.948Z,53.15
2022-09-17T13:58:29.206Z,51.06
2022-09-17T14:01:05.619Z,47.42
2022-09-17T14:03:37.689Z,43.02
2022-09-17T14:06:11.331Z,40.60
2022-09-17T14:08:45.162Z,37.93
2022-09-17T14:11:24.338Z,38.31
2022-09-17T14:14:41.502Z,35.14
2022-09-17T14:17:09.264Z,34.13
2022-09-17T14:19:51.394Z,33.51
2022-09-17T14:22:26.974Z,33.38
2022-09-17T14:24:55.597Z,34.13
2022-09-17T14:27:42.558Z,35.97
2022-09-17T14:30:21.688Z,39.13
2022-09-17T14:33:01.184Z,41.38
2022-09-17T14:35:44.635Z,43.47
2022-09-17T14:38:27.181Z,46.38
2022-09-17T14:41:11.662Z,49.01
2022-09-17T14:44:01.376Z,50.55
2022-09-17T14:46:31.506Z,52.50
2022-09-17T14:49:27.239Z,53.65
2022-09-17T14:51:57.526Z,54.51
2022-09-17T14:54:35.997Z,55.87
2022-09-17T14:57:27.844Z,57.32
2022-09-17T15:00:00.354Z,58.15
2022-09-17T15:02:41.979Z,58.75
2022-09-17T15:05:35.466Z,60.29
2022-09-17T15:08:11.960Z,60.74
2022-09-17T15:11:02.763Z,61.03
2022-09-17T15:13:45.607Z,62.45
2022-09-17T15:16:28.276Z,62.45
2022-09-17T15:18:59.494Z,63.26
2022-09-17T15:21:46.674Z,64.77
2022-09-17T15:24:53.284Z,65.39
2022-09-17T15:27:31.719Z,67.42
2022-09-17T15:30:22.482Z,68.99
2022-09-17T15:33:01.136Z,68.95
2022-09-17T15:35:34.114Z,70.42
2022-09-17T15:38:24.803Z,70.52
2022-09-17T15:40:53.264Z,71.83
2022-09-17T15:43:34.721Z,73.11
2022-09-17T15:46:29.780Z,73.91
2022-09-17T15:49:02.928Z,74.53
2022-09-17T15:51:37.290Z,75.08
2022-09-17T15:54:06.977Z,75.34
2022-09-17T15:56:42.530Z,76.34
2022-09-17T15:59:31.239Z,77.12
2022-09-17T16:02:02.132Z,76.98
2022-09-17T16:04:35.174Z,77.28
2022-09-17T16:07:11.572Z,77.33
2022-09-17T16:09:53.522Z,77.05
2022-09-17T16:12:28.859Z,76.80
2022-09-17T16:15:01.484Z,77.36
2022-09-17T16:17:46.148Z,77.76
2022-09-17T16:20:24.049Z,77.76
2022-09-17T16:22:54.096Z,78.35
2022-09-17T16:25:28.063Z,78.84
2022-09-17T16:28:12.485Z,80.02
2022-09-17T16:30:45.872Z,79.93
2022-09-17T16:33:17.979Z,79.72
2022-09-17T16:35:45.510Z,80.47
2022-09-17T16:38:13.233Z,80.93
2022-09-17T16:40:49.317Z,81.79
2022-09-17T16:43:16.701Z,83.04
2022-09-17T16:45:58.482Z,83.20
2022-09-17T16:48:25.758Z,83.66
2022-09-17T16:50:54.962Z,84.08
2022-09-17T16:53:22.440Z,84.17
2022-09-17T16:55:49.685Z,84.11
2022-09-17T16:58:17.203Z,84.76
2022-09-17T17:00:45.005Z,84.94
2022-09-17T17:03:14.066Z,84.68
2022-09-17T17:05:41.882Z,85.32
2022-09-17T17:08:10.666Z,85.39
2022-09-17T17:10:39.221Z,85.09
2022-09-17T17:13:06.805Z,85.34
2022-09-17T17:15:35.235Z,85.51
2022-09-17T17:18:02.421Z,85.19
2022-09-17T17:20:30.945Z,85.38
2022-09-17T17:22:58.265Z,85.70
2022-09-17T17:25:27.162Z,85.78
2022-09-17T17:27:54.600Z,85.93
2022-09-17T17:30:22.192Z,86.20
2022-09-17T17:32:52.705Z,85.90
2022-09-17T17:35:20.741Z,85.56
2022-09-17T17:37:48.679Z,85.89
2022-09-17T17:40:16.044Z,86.01
2022-09-17T17:42:44.361Z,85.98
2022-09-17T17:45:11.997Z,86.28
2022-09-17T17:47:39.258Z,86.38
2022-09-17T17:50:07.769Z,86.62
2022-09-17T17:52:36.550Z,86.62
2022-09-17T17:55:04.300Z,86.79
2022-09-17T17:57:31.710Z,86.94
2022-09-17T17:59:58.974Z,86.77
2022-09-17T18:02:26.403Z,87.01
2022-09-17T18:04:53.891Z,87.28
2022-09-17T18:07:21.163Z,87.70
2022-09-17T18:09:48.383Z,87.56
2022-09-17T18:12:15.885Z,88.00
2022-09-17T18:14:43.135Z,88.03
2022-09-17T18:17:10.369Z,88.33
2022-09-17T18:19:37.793Z,88.63
2022-09-17T18:22:05.115Z,88.62
2022-09-17T18:24:32.333Z,88.69
2022-09-17T18:26:59.714Z,88.97
2022-09-17T18:29:26.869Z,89.17
2022-09-17T18:31:54.801Z,89.05
2022-09-17T18:34:22.351Z,88.96
2022-09-17T18:36:51.316Z,88.84
2022-09-17T18:42:09.321Z,88.80
2022-09-17T18:44:36.780Z,88.58
2022-09-17T18:47:04.091Z,88.28
2022-09-17T18:49:31.537Z,88.39
2022-09-17T18:51:59.117Z,88.71
2022-09-17T18:54:26.324Z,88.60
2022-09-17T18:56:53.861Z,88.09
2022-09-17T18:59:21.009Z,88.37
2022-09-17T19:01:49.152Z,88.02
2022-09-17T19:04:17.767Z,88.60
2022-09-17T19:06:48.215Z,88.68
2022-09-17T19:09:15.557Z,88.72
2022-09-17T19:11:43.015Z,88.49
2022-09-17T19:14:10.870Z,88.87
2022-09-17T19:16:38.143Z,89.06
2022-09-17T19:19:05.683Z,88.78
2022-09-17T19:21:32.933Z,89.10
2022-09-17T19:24:00.238Z,89.25
2022-09-17T19:26:27.952Z,89.31
2022-09-17T19:28:58.352Z,89.58
2022-09-17T19:31:27.044Z,90.33
2022-09-17T19:33:56.779Z,90.46
2022-09-17T19:36:24.378Z,90.81
2022-09-17T19:38:51.605Z,90.65
2022-09-17T19:41:24.950Z,91.06
2022-09-17T19:43:57.403Z,91.00
2022-09-17T19:46:26.660Z,90.92
2022-09-17T19:48:57.279Z,90.54
2022-09-17T19:51:27.006Z,90.78
2022-09-17T19:53:54.456Z,91.14
2022-09-17T19:56:25.391Z,91.45
2022-09-17T19:58:53.297Z,91.38
2022-09-17T20:01:21.622Z,91.29
2022-09-17T20:03:50.394Z,91.79
2022-09-17T20:06:20.796Z,91.39
2022-09-17T20:08:51.865Z,91.44
2022-09-17T20:11:23.652Z,91.21
2022-09-17T20:14:08.797Z,90.71
2022-09-17T20:16:39.251Z,89.72
2022-09-17T20:19:08.377Z,90.25
2022-09-17T20:21:38.844Z,90.22
2022-09-17T20:24:07.899Z,90.42
2022-09-17T20:26:36.115Z,90.76
2022-09-17T20:29:04.538Z,90.97
2022-09-17T20:31:32.877Z,90.87
2022-09-17T20:34:03.152Z,91.36
2022-09-17T20:36:35.502Z,91.18
2022-09-17T20:39:17.939Z,91.23
2022-09-17T20:41:47.015Z,91.57
2022-09-17T20:44:14.971Z,92.02
2022-09-17T20:46:43.335Z,92.29
2022-09-17T20:49:10.624Z,92.54
2022-09-17T20:51:38.127Z,92.25
2022-09-17T20:54:07.681Z,92.93
2022-09-17T20:56:35.879Z,92.84
2022-09-17T20:59:15.296Z,92.93
2022-09-17T21:01:47.432Z,93.28
2022-09-17T21:04:19.731Z,94.18
2022-09-17T21:06:51.609Z,94.33
2022-09-17T21:09:19.302Z,94.83
2022-09-17T21:11:49.204Z,95.11
2022-09-17T21:14:18.360Z,95.63
2022-09-17T21:16:49.056Z,95.70
2022-09-17T21:19:16.800Z,95.37
2022-09-17T21:21:44.825Z,95.59
2022-09-17T21:24:12.646Z,95.74
2022-09-17T21:26:39.938Z,96.10
2022-09-17T21:29:07.736Z,96.02
2022-09-17T21:31:37.805Z,95.82
2022-09-17T21:34:10.402Z,95.50
2022-09-17T21:36:40.023Z,95.72
2022-09-17T21:39:14.655Z,95.59
2022-09-17T21:41:48.198Z,96.26
2022-09-17T21:44:15.979Z,96.18
2022-09-17T21:46:43.955Z,96.22
2022-09-17T21:49:13.635Z,96.07
2022-09-17T21:51:43.938Z,95.82
2022-09-17T21:54:15.950Z,96.03
2022-09-17T21:56:45.723Z,95.86
2022-09-17T21:59:16.369Z,95.81
2022-09-17T22:01:47.211Z,95.83
2022-09-17T22:04:21.438Z,95.83
2022-09-17T22:06:50.137Z,96.33
2022-09-17T22:09:25.220Z,96.17
2022-09-17T22:11:53.818Z,96.80
2022-09-17T22:14:25.306Z,97.13
2022-09-17T22:16:57.143Z,97.22
2022-09-17T22:19:26.045Z,97.84
2022-09-17T22:21:55.769Z,97.89
2022-09-17T22:24:24.310Z,97.88
2022-09-17T22:26:57.669Z,98.39
2022-09-17T22:29:27.544Z,98.04
2022-09-17T22:31:55.216Z,98.43
2022-09-17T22:34:23.439Z,98.40
2022-09-17T22:36:51.025Z,98.54
2022-09-17T22:39:21.767Z,99.32
2022-09-17T22:41:50.627Z,99.30
2022-09-17T22:44:20.065Z,99.56
2022-09-17T22:46:50.709Z,99.74
2022-09-17T22:49:19.303Z,99.94
2022-09-17T22:51:47.325Z,100.00
2022-09-17T22:54:17.618Z,100.00
2022-09-17T22:56:47.162Z,100.00
2022-09-17T22:59:14.777Z,100.00
2022-09-17T23:01:42.465Z,100.00
2022-09-17T23:04:10.419Z,100.00
2022-09-17T23:06:42.205Z,100.00
2022-09-17T23:09:12.037Z,100.00
2022-09-17T23:11:40.627Z,100.00
2022-09-17T23:14:12.514Z,100.00
2022-09-17T23:16:44.493Z,100.00
2022-09-17T23:19:14.386Z,100.00
2022-09-17T23:21:43.159Z,100.00
2022-09-17T23:24:17.272Z,100.00
2022-09-17T23:26:45.027Z,100.00
2022-09-17T23:29:12.411Z,100.00
2022-09-17T23:31:40.582Z,100.00
2022-09-17T23:34:09.945Z,100.00
2022-09-17T23:36:39.961Z,100.00
2022-09-17T23:39:09.318Z,100.00
2022-09-17T23:41:43.434Z,100.00
2022-09-17T23:44:15.361Z,100.00
2022-09-17T23:46:45.710Z,100.00
2022-09-17T23:49:14.776Z,100.00
2022-09-17T23:51:42.722Z,100.00
2022-09-17T23:54:11.319Z,100.00
2022-09-17T23:56:38.691Z,100.00
2022-09-17T23:59:07.467Z,100.00
